Terminal Aerodrome Forecast
Issued by NWS

Home | Current Version | Previous Version | Text Only | Print | Product List | Glossary On
Versions: 1 2 3 4 5 6 7 8 9 10 11 12
000
FTUS45 KRIW 231129
TAFCPR
TAF
KCPR 231129Z 2312/2412 30007KT P6SM VCSH BKN070
     FM231300 30010KT P6SM SCT070
     FM231800 32014G20KT P6SM FEW060 BKN250
     FM240100 26007KT P6SM SCT250=

USA.gov is the U.S. government's official web portal to all federal, state and local government web resources and services.